sensor_id;sensor_type;location;lat;lon;timestamp;P1;durP1;ratioP1;P2;durP2;ratioP2
47429;SDS011;33181;49.246;7.372;2023-05-02T00:00:44;9.53;;;8.23;;
47429;SDS011;33181;49.246;7.372;2023-05-02T00:03:10;11.23;;;9.20;;
47429;SDS011;33181;49.246;7.372;2023-05-02T00:05:36;10.30;;;9.00;;
47429;SDS011;33181;49.246;7.372;2023-05-02T00:08:03;12.13;;;9.10;;
47429;SDS011;33181;49.246;7.372;2023-05-02T00:10:29;10.60;;;9.50;;
47429;SDS011;33181;49.246;7.372;2023-05-02T00:12:55;12.87;;;9.03;;
47429;SDS011;33181;49.246;7.372;2023-05-02T00:15:20;10.83;;;9.00;;
47429;SDS011;33181;49.246;7.372;2023-05-02T00:17:46;11.70;;;8.77;;
47429;SDS011;33181;49.246;7.372;2023-05-02T00:20:12;12.20;;;9.37;;
47429;SDS011;33181;49.246;7.372;2023-05-02T00:22:38;10.97;;;8.53;;
47429;SDS011;33181;49.246;7.372;2023-05-02T00:25:04;9.53;;;8.30;;
47429;SDS011;33181;49.246;7.372;2023-05-02T00:27:32;10.90;;;8.60;;
47429;SDS011;33181;49.246;7.372;2023-05-02T00:29:58;10.50;;;8.93;;
47429;SDS011;33181;49.246;7.372;2023-05-02T00:32:26;11.80;;;8.10;;
47429;SDS011;33181;49.246;7.372;2023-05-02T00:34:52;11.67;;;9.23;;
47429;SDS011;33181;49.246;7.372;2023-05-02T00:37:20;9.87;;;8.63;;
47429;SDS011;33181;49.246;7.372;2023-05-02T00:39:50;12.50;;;9.23;;
47429;SDS011;33181;49.246;7.372;2023-05-02T00:42:15;9.83;;;8.30;;
47429;SDS011;33181;49.246;7.372;2023-05-02T00:44:41;11.47;;;9.47;;
47429;SDS011;33181;49.246;7.372;2023-05-02T00:47:07;10.40;;;8.37;;
47429;SDS011;33181;49.246;7.372;2023-05-02T00:49:33;11.30;;;8.53;;
47429;SDS011;33181;49.246;7.372;2023-05-02T00:51:59;10.13;;;8.80;;
47429;SDS011;33181;49.246;7.372;2023-05-02T00:54:26;10.00;;;8.50;;
47429;SDS011;33181;49.246;7.372;2023-05-02T00:56:51;12.50;;;8.80;;
47429;SDS011;33181;49.246;7.372;2023-05-02T00:59:17;10.77;;;8.50;;
47429;SDS011;33181;49.246;7.372;2023-05-02T01:01:48;12.67;;;8.70;;
47429;SDS011;33181;49.246;7.372;2023-05-02T01:10:05;10.80;;;8.30;;
47429;SDS011;33181;49.246;7.372;2023-05-02T01:12:59;10.33;;;8.70;;
47429;SDS011;33181;49.246;7.372;2023-05-02T01:15:38;10.80;;;8.50;;
47429;SDS011;33181;49.246;7.372;2023-05-02T01:18:08;10.83;;;8.97;;
47429;SDS011;33181;49.246;7.372;2023-05-02T01:20:36;9.80;;;8.60;;
47429;SDS011;33181;49.246;7.372;2023-05-02T01:23:13;9.77;;;7.80;;
47429;SDS011;33181;49.246;7.372;2023-05-02T01:29:05;10.40;;;8.70;;
47429;SDS011;33181;49.246;7.372;2023-05-02T01:31:37;11.00;;;8.63;;
47429;SDS011;33181;49.246;7.372;2023-05-02T01:34:10;9.57;;;8.00;;
47429;SDS011;33181;49.246;7.372;2023-05-02T01:36:36;9.40;;;8.37;;
47429;SDS011;33181;49.246;7.372;2023-05-02T01:39:08;9.57;;;8.27;;
47429;SDS011;33181;49.246;7.372;2023-05-02T01:41:37;10.13;;;8.10;;
47429;SDS011;33181;49.246;7.372;2023-05-02T01:44:04;9.13;;;7.67;;
47429;SDS011;33181;49.246;7.372;2023-05-02T01:46:33;9.63;;;7.87;;
47429;SDS011;33181;49.246;7.372;2023-05-02T01:49:04;11.17;;;8.60;;
47429;SDS011;33181;49.246;7.372;2023-05-02T01:51:32;10.03;;;7.80;;
47429;SDS011;33181;49.246;7.372;2023-05-02T01:54:04;12.23;;;9.37;;
47429;SDS011;33181;49.246;7.372;2023-05-02T01:56:34;14.20;;;8.80;;
47429;SDS011;33181;49.246;7.372;2023-05-02T01:59:04;11.60;;;8.97;;
47429;SDS011;33181;49.246;7.372;2023-05-02T02:01:37;13.40;;;9.00;;
47429;SDS011;33181;49.246;7.372;2023-05-02T02:04:05;12.83;;;8.70;;
47429;SDS011;33181;49.246;7.372;2023-05-02T02:06:35;10.50;;;7.90;;
47429;SDS011;33181;49.246;7.372;2023-05-02T02:09:01;13.90;;;7.50;;
47429;SDS011;33181;49.246;7.372;2023-05-02T02:11:34;9.43;;;8.00;;
47429;SDS011;33181;49.246;7.372;2023-05-02T02:14:14;9.90;;;7.83;;
47429;SDS011;33181;49.246;7.372;2023-05-02T02:16:45;14.97;;;8.83;;
47429;SDS011;33181;49.246;7.372;2023-05-02T02:19:12;9.60;;;8.50;;
47429;SDS011;33181;49.246;7.372;2023-05-02T02:21:39;11.33;;;7.93;;
47429;SDS011;33181;49.246;7.372;2023-05-02T02:24:11;10.20;;;8.03;;
47429;SDS011;33181;49.246;7.372;2023-05-02T02:26:37;10.17;;;8.70;;
47429;SDS011;33181;49.246;7.372;2023-05-02T02:29:04;9.17;;;8.20;;
47429;SDS011;33181;49.246;7.372;2023-05-02T02:31:33;11.53;;;8.53;;
47429;SDS011;33181;49.246;7.372;2023-05-02T02:34:00;10.20;;;8.33;;
47429;SDS011;33181;49.246;7.372;2023-05-02T02:36:35;10.40;;;8.13;;
47429;SDS011;33181;49.246;7.372;2023-05-02T02:47:42;9.80;;;7.93;;
47429;SDS011;33181;49.246;7.372;2023-05-02T02:50:35;11.70;;;9.20;;
47429;SDS011;33181;49.246;7.372;2023-05-02T02:53:17;11.77;;;8.70;;
47429;SDS011;33181;49.246;7.372;2023-05-02T02:56:04;9.80;;;8.33;;
47429;SDS011;33181;49.246;7.372;2023-05-02T03:01:28;11.07;;;8.53;;
47429;SDS011;33181;49.246;7.372;2023-05-02T03:03:56;10.07;;;8.33;;
47429;SDS011;33181;49.246;7.372;2023-05-02T03:06:23;14.60;;;8.40;;
47429;SDS011;33181;49.246;7.372;2023-05-02T03:08:51;9.17;;;8.17;;
47429;SDS011;33181;49.246;7.372;2023-05-02T03:11:17;8.50;;;7.37;;
47429;SDS011;33181;49.246;7.372;2023-05-02T03:13:42;12.43;;;8.40;;
47429;SDS011;33181;49.246;7.372;2023-05-02T03:16:24;10.43;;;8.73;;
47429;SDS011;33181;49.246;7.372;2023-05-02T03:18:59;10.63;;;8.30;;
47429;SDS011;33181;49.246;7.372;2023-05-02T03:21:25;10.23;;;8.20;;
47429;SDS011;33181;49.246;7.372;2023-05-02T03:23:51;10.60;;;8.27;;
47429;SDS011;33181;49.246;7.372;2023-05-02T03:26:17;10.07;;;7.37;;
47429;SDS011;33181;49.246;7.372;2023-05-02T03:28:43;10.80;;;8.20;;
47429;SDS011;33181;49.246;7.372;2023-05-02T03:31:12;9.50;;;7.50;;
47429;SDS011;33181;49.246;7.372;2023-05-02T03:33:38;9.60;;;7.30;;
47429;SDS011;33181;49.246;7.372;2023-05-02T03:36:04;10.80;;;8.67;;
47429;SDS011;33181;49.246;7.372;2023-05-02T03:38:31;8.90;;;7.73;;
47429;SDS011;33181;49.246;7.372;2023-05-02T03:40:57;11.00;;;7.70;;
47429;SDS011;33181;49.246;7.372;2023-05-02T03:43:22;11.20;;;9.00;;
47429;SDS011;33181;49.246;7.372;2023-05-02T03:45:49;9.53;;;7.87;;
47429;SDS011;33181;49.246;7.372;2023-05-02T03:48:15;11.20;;;8.90;;
47429;SDS011;33181;49.246;7.372;2023-05-02T03:50:41;10.90;;;8.73;;
47429;SDS011;33181;49.246;7.372;2023-05-02T03:53:07;11.87;;;8.87;;
47429;SDS011;33181;49.246;7.372;2023-05-02T03:55:42;12.50;;;8.00;;
47429;SDS011;33181;49.246;7.372;2023-05-02T03:58:09;9.20;;;7.80;;
47429;SDS011;33181;49.246;7.372;2023-05-02T04:00:35;9.00;;;7.90;;
47429;SDS011;33181;49.246;7.372;2023-05-02T04:03:02;10.93;;;8.30;;
47429;SDS011;33181;49.246;7.372;2023-05-02T04:05:28;9.20;;;7.73;;
47429;SDS011;33181;49.246;7.372;2023-05-02T04:07:54;9.50;;;8.10;;
47429;SDS011;33181;49.246;7.372;2023-05-02T04:10:21;10.37;;;8.60;;
47429;SDS011;33181;49.246;7.372;2023-05-02T04:12:47;8.93;;;7.77;;
47429;SDS011;33181;49.246;7.372;2023-05-02T04:15:13;10.63;;;8.33;;
47429;SDS011;33181;49.246;7.372;2023-05-02T04:17:39;10.80;;;8.60;;
47429;SDS011;33181;49.246;7.372;2023-05-02T04:20:06;12.00;;;9.63;;
47429;SDS011;33181;49.246;7.372;2023-05-02T04:22:32;12.80;;;8.60;;
47429;SDS011;33181;49.246;7.372;2023-05-02T04:24:58;10.17;;;8.33;;
47429;SDS011;33181;49.246;7.372;2023-05-02T04:27:24;10.10;;;8.40;;
47429;SDS011;33181;49.246;7.372;2023-05-02T04:29:51;12.70;;;9.33;;
47429;SDS011;33181;49.246;7.372;2023-05-02T04:32:20;12.63;;;9.63;;
47429;SDS011;33181;49.246;7.372;2023-05-02T04:34:46;10.13;;;8.17;;
47429;SDS011;33181;49.246;7.372;2023-05-02T04:37:12;10.27;;;8.30;;
47429;SDS011;33181;49.246;7.372;2023-05-02T04:39:38;13.43;;;9.03;;
47429;SDS011;33181;49.246;7.372;2023-05-02T04:42:04;14.20;;;8.70;;
47429;SDS011;33181;49.246;7.372;2023-05-02T04:44:30;11.10;;;8.60;;
47429;SDS011;33181;49.246;7.372;2023-05-02T04:46:55;9.10;;;8.00;;
47429;SDS011;33181;49.246;7.372;2023-05-02T04:49:21;12.97;;;9.20;;
47429;SDS011;33181;49.246;7.372;2023-05-02T04:51:47;10.63;;;8.10;;
47429;SDS011;33181;49.246;7.372;2023-05-02T04:54:13;11.87;;;9.00;;
47429;SDS011;33181;49.246;7.372;2023-05-02T04:56:39;11.83;;;9.67;;
47429;SDS011;33181;49.246;7.372;2023-05-02T04:59:05;12.43;;;10.13;;
47429;SDS011;33181;49.246;7.372;2023-05-02T05:01:31;16.10;;;9.97;;
47429;SDS011;33181;49.246;7.372;2023-05-02T05:03:57;9.90;;;8.87;;
47429;SDS011;33181;49.246;7.372;2023-05-02T05:06:23;11.47;;;9.50;;
47429;SDS011;33181;49.246;7.372;2023-05-02T05:08:50;10.60;;;8.70;;
47429;SDS011;33181;49.246;7.372;2023-05-02T05:11:16;11.33;;;7.90;;
47429;SDS011;33181;49.246;7.372;2023-05-02T05:13:42;14.13;;;8.70;;
47429;SDS011;33181;49.246;7.372;2023-05-02T05:16:08;10.80;;;8.17;;
47429;SDS011;33181;49.246;7.372;2023-05-02T05:18:34;11.20;;;8.20;;
47429;SDS011;33181;49.246;7.372;2023-05-02T05:21:07;10.47;;;7.83;;
47429;SDS011;33181;49.246;7.372;2023-05-02T05:23:35;9.13;;;8.03;;
47429;SDS011;33181;49.246;7.372;2023-05-02T05:26:11;10.80;;;8.80;;
47429;SDS011;33181;49.246;7.372;2023-05-02T05:28:39;9.67;;;8.30;;
47429;SDS011;33181;49.246;7.372;2023-05-02T05:31:06;10.10;;;8.50;;
47429;SDS011;33181;49.246;7.372;2023-05-02T05:33:35;12.97;;;10.03;;
47429;SDS011;33181;49.246;7.372;2023-05-02T05:36:12;12.30;;;9.97;;
47429;SDS011;33181;49.246;7.372;2023-05-02T05:38:39;12.37;;;10.80;;
47429;SDS011;33181;49.246;7.372;2023-05-02T05:41:05;11.93;;;9.40;;
47429;SDS011;33181;49.246;7.372;2023-05-02T05:43:32;12.70;;;8.93;;
47429;SDS011;33181;49.246;7.372;2023-05-02T05:45:57;12.60;;;9.03;;
47429;SDS011;33181;49.246;7.372;2023-05-02T05:48:23;11.70;;;8.23;;
47429;SDS011;33181;49.246;7.372;2023-05-02T05:50:49;10.07;;;8.07;;
47429;SDS011;33181;49.246;7.372;2023-05-02T05:53:18;10.93;;;9.00;;
47429;SDS011;33181;49.246;7.372;2023-05-02T05:55:44;11.60;;;9.60;;
47429;SDS011;33181;49.246;7.372;2023-05-02T05:58:10;11.70;;;9.40;;
47429;SDS011;33181;49.246;7.372;2023-05-02T06:00:37;11.00;;;9.70;;
47429;SDS011;33181;49.246;7.372;2023-05-02T06:03:04;14.03;;;10.30;;
47429;SDS011;33181;49.246;7.372;2023-05-02T06:05:31;12.37;;;9.63;;
47429;SDS011;33181;49.246;7.372;2023-05-02T06:07:57;12.60;;;8.80;;
47429;SDS011;33181;49.246;7.372;2023-05-02T06:10:23;12.77;;;8.77;;
47429;SDS011;33181;49.246;7.372;2023-05-02T06:12:50;14.50;;;9.23;;
47429;SDS011;33181;49.246;7.372;2023-05-02T06:15:18;11.17;;;8.70;;
47429;SDS011;33181;49.246;7.372;2023-05-02T06:17:44;13.37;;;9.33;;
47429;SDS011;33181;49.246;7.372;2023-05-02T06:20:10;21.33;;;10.67;;
47429;SDS011;33181;49.246;7.372;2023-05-02T06:22:36;11.10;;;9.53;;
47429;SDS011;33181;49.246;7.372;2023-05-02T06:25:03;10.93;;;9.00;;
47429;SDS011;33181;49.246;7.372;2023-05-02T06:27:30;13.93;;;9.50;;
47429;SDS011;33181;49.246;7.372;2023-05-02T06:29:56;13.17;;;10.30;;
47429;SDS011;33181;49.246;7.372;2023-05-02T06:32:22;11.70;;;10.00;;
47429;SDS011;33181;49.246;7.372;2023-05-02T06:34:47;13.80;;;11.30;;
47429;SDS011;33181;49.246;7.372;2023-05-02T06:37:13;12.47;;;10.23;;
47429;SDS011;33181;49.246;7.372;2023-05-02T06:39:39;11.47;;;10.10;;
47429;SDS011;33181;49.246;7.372;2023-05-02T06:42:05;11.00;;;9.80;;
47429;SDS011;33181;49.246;7.372;2023-05-02T06:44:31;13.10;;;10.13;;
47429;SDS011;33181;49.246;7.372;2023-05-02T06:46:57;17.97;;;10.60;;
47429;SDS011;33181;49.246;7.372;2023-05-02T06:49:24;12.97;;;10.00;;
47429;SDS011;33181;49.246;7.372;2023-05-02T06:51:50;13.40;;;10.67;;
47429;SDS011;33181;49.246;7.372;2023-05-02T06:54:16;15.30;;;11.70;;
47429;SDS011;33181;49.246;7.372;2023-05-02T06:56:42;16.53;;;12.60;;
47429;SDS011;33181;49.246;7.372;2023-05-02T06:59:09;15.23;;;12.43;;
47429;SDS011;33181;49.246;7.372;2023-05-02T07:01:35;17.67;;;14.40;;
47429;SDS011;33181;49.246;7.372;2023-05-02T07:04:01;24.60;;;17.37;;
47429;SDS011;33181;49.246;7.372;2023-05-02T07:06:30;20.00;;;15.10;;
47429;SDS011;33181;49.246;7.372;2023-05-02T07:08:56;22.10;;;16.80;;
47429;SDS011;33181;49.246;7.372;2023-05-02T07:11:22;22.03;;;16.37;;
47429;SDS011;33181;49.246;7.372;2023-05-02T07:13:49;22.63;;;18.73;;
47429;SDS011;33181;49.246;7.372;2023-05-02T07:16:15;25.50;;;20.00;;
47429;SDS011;33181;49.246;7.372;2023-05-02T07:18:41;25.67;;;20.50;;
47429;SDS011;33181;49.246;7.372;2023-05-02T07:21:09;25.10;;;18.40;;
47429;SDS011;33181;49.246;7.372;2023-05-02T07:23:36;23.77;;;18.53;;
47429;SDS011;33181;49.246;7.372;2023-05-02T07:26:01;30.97;;;22.00;;
47429;SDS011;33181;49.246;7.372;2023-05-02T07:28:29;25.67;;;20.00;;
47429;SDS011;33181;49.246;7.372;2023-05-02T07:30:55;30.27;;;22.67;;
47429;SDS011;33181;49.246;7.372;2023-05-02T07:33:23;30.80;;;21.47;;
47429;SDS011;33181;49.246;7.372;2023-05-02T07:35:50;30.00;;;21.20;;
47429;SDS011;33181;49.246;7.372;2023-05-02T07:38:16;33.60;;;24.10;;
47429;SDS011;33181;49.246;7.372;2023-05-02T07:40:42;35.53;;;24.63;;
47429;SDS011;33181;49.246;7.372;2023-05-02T07:43:08;31.53;;;24.00;;
47429;SDS011;33181;49.246;7.372;2023-05-02T07:45:34;33.50;;;23.87;;
47429;SDS011;33181;49.246;7.372;2023-05-02T07:48:00;35.63;;;23.27;;
47429;SDS011;33181;49.246;7.372;2023-05-02T07:50:26;35.40;;;25.17;;
47429;SDS011;33181;49.246;7.372;2023-05-02T07:52:53;35.33;;;25.03;;
47429;SDS011;33181;49.246;7.372;2023-05-02T07:55:20;38.33;;;26.67;;
47429;SDS011;33181;49.246;7.372;2023-05-02T07:57:46;40.43;;;28.97;;
47429;SDS011;33181;49.246;7.372;2023-05-02T08:00:12;40.70;;;28.17;;
47429;SDS011;33181;49.246;7.372;2023-05-02T08:02:41;36.67;;;26.17;;
47429;SDS011;33181;49.246;7.372;2023-05-02T08:05:08;40.63;;;26.97;;
47429;SDS011;33181;49.246;7.372;2023-05-02T08:07:35;38.80;;;28.17;;
47429;SDS011;33181;49.246;7.372;2023-05-02T08:10:02;40.23;;;27.60;;
47429;SDS011;33181;49.246;7.372;2023-05-02T08:12:29;37.83;;;26.90;;
47429;SDS011;33181;49.246;7.372;2023-05-02T08:14:56;33.83;;;23.83;;
47429;SDS011;33181;49.246;7.372;2023-05-02T08:17:36;34.53;;;23.83;;
47429;SDS011;33181;49.246;7.372;2023-05-02T08:20:02;37.80;;;24.83;;
47429;SDS011;33181;49.246;7.372;2023-05-02T08:22:29;35.13;;;24.00;;
47429;SDS011;33181;49.246;7.372;2023-05-02T08:24:55;35.60;;;24.20;;
47429;SDS011;33181;49.246;7.372;2023-05-02T08:27:22;36.83;;;24.97;;
47429;SDS011;33181;49.246;7.372;2023-05-02T08:29:47;36.50;;;25.33;;
47429;SDS011;33181;49.246;7.372;2023-05-02T08:32:13;32.73;;;23.70;;
47429;SDS011;33181;49.246;7.372;2023-05-02T08:34:39;32.20;;;22.63;;
47429;SDS011;33181;49.246;7.372;2023-05-02T08:37:08;33.87;;;22.73;;
47429;SDS011;33181;49.246;7.372;2023-05-02T08:39:36;37.03;;;25.03;;
47429;SDS011;33181;49.246;7.372;2023-05-02T08:42:05;36.53;;;24.13;;
47429;SDS011;33181;49.246;7.372;2023-05-02T08:44:33;31.90;;;23.50;;
47429;SDS011;33181;49.246;7.372;2023-05-02T08:46:59;33.63;;;24.50;;
47429;SDS011;33181;49.246;7.372;2023-05-02T08:49:30;35.00;;;24.20;;
47429;SDS011;33181;49.246;7.372;2023-05-02T08:52:00;34.17;;;24.27;;
47429;SDS011;33181;49.246;7.372;2023-05-02T08:54:31;35.13;;;24.73;;
47429;SDS011;33181;49.246;7.372;2023-05-02T08:57:02;33.53;;;23.47;;
47429;SDS011;33181;49.246;7.372;2023-05-02T08:59:30;34.23;;;24.33;;
47429;SDS011;33181;49.246;7.372;2023-05-02T09:02:16;31.90;;;23.27;;
47429;SDS011;33181;49.246;7.372;2023-05-02T09:05:09;36.00;;;24.93;;
47429;SDS011;33181;49.246;7.372;2023-05-02T09:07:47;34.50;;;23.50;;
47429;SDS011;33181;49.246;7.372;2023-05-02T09:10:16;32.17;;;22.10;;
47429;SDS011;33181;49.246;7.372;2023-05-02T09:12:42;32.70;;;22.90;;
47429;SDS011;33181;49.246;7.372;2023-05-02T09:17:44;32.07;;;21.93;;
47429;SDS011;33181;49.246;7.372;2023-05-02T09:20:12;32.37;;;22.03;;
47429;SDS011;33181;49.246;7.372;2023-05-02T09:22:50;30.83;;;22.27;;
47429;SDS011;33181;49.246;7.372;2023-05-02T09:25:17;33.07;;;22.67;;
47429;SDS011;33181;49.246;7.372;2023-05-02T09:27:51;32.27;;;23.00;;
47429;SDS011;33181;49.246;7.372;2023-05-02T09:30:19;35.00;;;24.03;;
47429;SDS011;33181;49.246;7.372;2023-05-02T09:32:50;34.17;;;23.80;;
47429;SDS011;33181;49.246;7.372;2023-05-02T09:35:21;35.10;;;24.00;;
47429;SDS011;33181;49.246;7.372;2023-05-02T09:37:54;33.20;;;23.93;;
47429;SDS011;33181;49.246;7.372;2023-05-02T09:40:22;33.30;;;23.20;;
47429;SDS011;33181;49.246;7.372;2023-05-02T09:42:49;32.73;;;23.33;;
47429;SDS011;33181;49.246;7.372;2023-05-02T09:45:19;33.07;;;23.40;;
47429;SDS011;33181;49.246;7.372;2023-05-02T09:47:50;31.03;;;21.87;;
47429;SDS011;33181;49.246;7.372;2023-05-02T09:53:00;29.37;;;20.50;;
47429;SDS011;33181;49.246;7.372;2023-05-02T09:55:28;33.43;;;22.70;;
47429;SDS011;33181;49.246;7.372;2023-05-02T09:57:55;28.50;;;20.80;;
47429;SDS011;33181;49.246;7.372;2023-05-02T10:00:20;37.57;;;22.80;;
47429;SDS011;33181;49.246;7.372;2023-05-02T10:02:47;32.27;;;21.13;;
47429;SDS011;33181;49.246;7.372;2023-05-02T10:05:15;32.03;;;22.00;;
47429;SDS011;33181;49.246;7.372;2023-05-02T10:07:43;30.97;;;20.77;;
47429;SDS011;33181;49.246;7.372;2023-05-02T10:10:11;27.10;;;19.43;;
47429;SDS011;33181;49.246;7.372;2023-05-02T10:12:41;30.33;;;20.40;;
47429;SDS011;33181;49.246;7.372;2023-05-02T10:15:08;28.60;;;19.73;;
47429;SDS011;33181;49.246;7.372;2023-05-02T10:17:39;29.90;;;20.80;;
47429;SDS011;33181;49.246;7.372;2023-05-02T10:20:13;27.23;;;18.17;;
47429;SDS011;33181;49.246;7.372;2023-05-02T10:22:46;34.20;;;21.00;;
47429;SDS011;33181;49.246;7.372;2023-05-02T10:25:14;34.40;;;23.03;;
47429;SDS011;33181;49.246;7.372;2023-05-02T10:27:40;30.30;;;21.13;;
47429;SDS011;33181;49.246;7.372;2023-05-02T10:30:07;32.40;;;21.43;;
47429;SDS011;33181;49.246;7.372;2023-05-02T10:32:34;32.43;;;20.80;;
47429;SDS011;33181;49.246;7.372;2023-05-02T10:35:04;28.70;;;19.80;;
47429;SDS011;33181;49.246;7.372;2023-05-02T10:37:32;30.70;;;19.60;;
47429;SDS011;33181;49.246;7.372;2023-05-02T10:40:02;28.63;;;18.40;;
47429;SDS011;33181;49.246;7.372;2023-05-02T10:42:30;30.80;;;19.63;;
47429;SDS011;33181;49.246;7.372;2023-05-02T10:45:51;30.20;;;19.90;;
47429;SDS011;33181;49.246;7.372;2023-05-02T10:51:31;23.53;;;15.80;;
47429;SDS011;33181;49.246;7.372;2023-05-02T10:54:17;22.10;;;15.50;;
47429;SDS011;33181;49.246;7.372;2023-05-02T10:59:32;25.53;;;15.57;;
47429;SDS011;33181;49.246;7.372;2023-05-02T11:07:33;23.40;;;15.90;;
47429;SDS011;33181;49.246;7.372;2023-05-02T11:20:26;24.37;;;15.40;;
47429;SDS011;33181;49.246;7.372;2023-05-02T11:22:53;21.97;;;14.63;;
47429;SDS011;33181;49.246;7.372;2023-05-02T11:25:32;22.77;;;14.63;;
47429;SDS011;33181;49.246;7.372;2023-05-02T11:28:04;19.03;;;13.50;;
47429;SDS011;33181;49.246;7.372;2023-05-02T11:30:35;20.40;;;14.27;;
47429;SDS011;33181;49.246;7.372;2023-05-02T11:33:10;22.83;;;14.93;;
47429;SDS011;33181;49.246;7.372;2023-05-02T11:35:41;19.33;;;13.37;;
47429;SDS011;33181;49.246;7.372;2023-05-02T11:38:09;25.50;;;15.43;;
47429;SDS011;33181;49.246;7.372;2023-05-02T11:40:37;20.33;;;13.50;;
47429;SDS011;33181;49.246;7.372;2023-05-02T11:43:13;17.93;;;12.67;;
47429;SDS011;33181;49.246;7.372;2023-05-02T11:45:40;17.37;;;12.20;;
47429;SDS011;33181;49.246;7.372;2023-05-02T11:48:07;17.47;;;12.60;;
47429;SDS011;33181;49.246;7.372;2023-05-02T11:53:22;18.67;;;12.93;;
47429;SDS011;33181;49.246;7.372;2023-05-02T11:55:51;20.10;;;12.97;;
47429;SDS011;33181;49.246;7.372;2023-05-02T11:58:21;16.30;;;12.10;;
47429;SDS011;33181;49.246;7.372;2023-05-02T12:01:10;16.67;;;11.80;;
47429;SDS011;33181;49.246;7.372;2023-05-02T12:03:38;17.80;;;11.70;;
47429;SDS011;33181;49.246;7.372;2023-05-02T12:06:10;19.30;;;10.37;;
47429;SDS011;33181;49.246;7.372;2023-05-02T12:08:38;14.57;;;9.97;;
47429;SDS011;33181;49.246;7.372;2023-05-02T12:11:06;14.87;;;10.20;;
47429;SDS011;33181;49.246;7.372;2023-05-02T12:13:33;19.67;;;11.20;;
47429;SDS011;33181;49.246;7.372;2023-05-02T12:15:59;18.03;;;11.40;;
47429;SDS011;33181;49.246;7.372;2023-05-02T12:18:26;14.87;;;10.13;;
47429;SDS011;33181;49.246;7.372;2023-05-02T12:20:56;16.33;;;10.10;;
47429;SDS011;33181;49.246;7.372;2023-05-02T12:23:23;13.40;;;9.20;;
47429;SDS011;33181;49.246;7.372;2023-05-02T12:25:51;16.37;;;10.57;;
47429;SDS011;33181;49.246;7.372;2023-05-02T12:28:17;16.93;;;10.50;;
47429;SDS011;33181;49.246;7.372;2023-05-02T12:30:46;14.67;;;10.63;;
47429;SDS011;33181;49.246;7.372;2023-05-02T12:33:13;12.27;;;8.83;;
47429;SDS011;33181;49.246;7.372;2023-05-02T12:35:41;14.37;;;10.40;;
47429;SDS011;33181;49.246;7.372;2023-05-02T12:38:10;16.53;;;10.27;;
47429;SDS011;33181;49.246;7.372;2023-05-02T12:40:49;12.07;;;8.10;;
47429;SDS011;33181;49.246;7.372;2023-05-02T12:43:21;10.70;;;8.07;;
47429;SDS011;33181;49.246;7.372;2023-05-02T12:45:47;10.33;;;7.57;;
47429;SDS011;33181;49.246;7.372;2023-05-02T12:48:24;12.90;;;7.30;;
47429;SDS011;33181;49.246;7.372;2023-05-02T12:50:53;10.40;;;7.47;;
47429;SDS011;33181;49.246;7.372;2023-05-02T12:56:21;9.30;;;6.73;;
47429;SDS011;33181;49.246;7.372;2023-05-02T12:58:48;8.90;;;6.80;;
47429;SDS011;33181;49.246;7.372;2023-05-02T13:01:15;9.50;;;6.70;;
47429;SDS011;33181;49.246;7.372;2023-05-02T13:03:49;11.63;;;6.20;;
47429;SDS011;33181;49.246;7.372;2023-05-02T13:06:15;6.83;;;5.47;;
47429;SDS011;33181;49.246;7.372;2023-05-02T13:08:42;8.00;;;6.40;;
47429;SDS011;33181;49.246;7.372;2023-05-02T13:11:08;8.60;;;5.47;;
47429;SDS011;33181;49.246;7.372;2023-05-02T13:13:34;8.87;;;6.50;;
47429;SDS011;33181;49.246;7.372;2023-05-02T13:16:00;7.00;;;5.23;;
47429;SDS011;33181;49.246;7.372;2023-05-02T13:18:26;7.63;;;5.50;;
47429;SDS011;33181;49.246;7.372;2023-05-02T13:20:52;8.33;;;6.20;;
47429;SDS011;33181;49.246;7.372;2023-05-02T13:23:18;8.67;;;5.87;;
47429;SDS011;33181;49.246;7.372;2023-05-02T13:25:44;7.13;;;5.90;;
47429;SDS011;33181;49.246;7.372;2023-05-02T13:28:10;9.53;;;6.47;;
47429;SDS011;33181;49.246;7.372;2023-05-02T13:30:36;10.00;;;6.07;;
47429;SDS011;33181;49.246;7.372;2023-05-02T13:33:02;7.40;;;5.50;;
47429;SDS011;33181;49.246;7.372;2023-05-02T13:35:28;8.47;;;5.27;;
47429;SDS011;33181;49.246;7.372;2023-05-02T13:37:54;5.47;;;3.73;;
47429;SDS011;33181;49.246;7.372;2023-05-02T13:40:20;4.43;;;3.40;;
47429;SDS011;33181;49.246;7.372;2023-05-02T13:42:45;6.20;;;3.20;;
47429;SDS011;33181;49.246;7.372;2023-05-02T13:45:11;4.97;;;3.57;;
47429;SDS011;33181;49.246;7.372;2023-05-02T13:47:38;5.43;;;3.73;;
47429;SDS011;33181;49.246;7.372;2023-05-02T13:50:04;4.97;;;3.67;;
47429;SDS011;33181;49.246;7.372;2023-05-02T13:52:31;3.90;;;2.97;;
47429;SDS011;33181;49.246;7.372;2023-05-02T13:54:57;4.37;;;2.93;;
47429;SDS011;33181;49.246;7.372;2023-05-02T13:57:23;3.77;;;3.07;;
47429;SDS011;33181;49.246;7.372;2023-05-02T13:59:49;3.87;;;2.80;;
47429;SDS011;33181;49.246;7.372;2023-05-02T14:02:15;4.20;;;3.10;;
47429;SDS011;33181;49.246;7.372;2023-05-02T14:04:41;3.77;;;2.73;;
47429;SDS011;33181;49.246;7.372;2023-05-02T14:07:07;3.40;;;2.70;;
47429;SDS011;33181;49.246;7.372;2023-05-02T14:09:33;3.63;;;2.50;;
47429;SDS011;33181;49.246;7.372;2023-05-02T14:11:59;3.97;;;2.50;;
47429;SDS011;33181;49.246;7.372;2023-05-02T14:14:28;4.07;;;2.70;;
47429;SDS011;33181;49.246;7.372;2023-05-02T14:16:53;3.10;;;2.60;;
47429;SDS011;33181;49.246;7.372;2023-05-02T14:19:19;3.00;;;2.40;;
47429;SDS011;33181;49.246;7.372;2023-05-02T14:21:45;3.40;;;2.63;;
47429;SDS011;33181;49.246;7.372;2023-05-02T14:24:11;5.13;;;2.50;;
47429;SDS011;33181;49.246;7.372;2023-05-02T14:26:39;3.30;;;2.80;;
47429;SDS011;33181;49.246;7.372;2023-05-02T14:29:05;3.13;;;2.67;;
47429;SDS011;33181;49.246;7.372;2023-05-02T14:31:31;3.50;;;2.70;;
47429;SDS011;33181;49.246;7.372;2023-05-02T14:33:57;3.70;;;2.80;;
47429;SDS011;33181;49.246;7.372;2023-05-02T14:36:23;3.83;;;3.00;;
47429;SDS011;33181;49.246;7.372;2023-05-02T14:38:48;5.53;;;2.77;;
47429;SDS011;33181;49.246;7.372;2023-05-02T14:41:14;4.10;;;2.80;;
47429;SDS011;33181;49.246;7.372;2023-05-02T14:43:40;4.23;;;2.97;;
47429;SDS011;33181;49.246;7.372;2023-05-02T14:46:06;3.90;;;2.93;;
47429;SDS011;33181;49.246;7.372;2023-05-02T14:48:32;4.57;;;2.93;;
47429;SDS011;33181;49.246;7.372;2023-05-02T14:51:01;4.20;;;3.23;;
47429;SDS011;33181;49.246;7.372;2023-05-02T14:53:28;4.43;;;2.97;;
47429;SDS011;33181;49.246;7.372;2023-05-02T14:55:54;3.70;;;3.20;;
47429;SDS011;33181;49.246;7.372;2023-05-02T14:58:20;4.37;;;2.90;;
47429;SDS011;33181;49.246;7.372;2023-05-02T15:00:46;3.50;;;3.00;;
47429;SDS011;33181;49.246;7.372;2023-05-02T15:03:12;4.97;;;2.90;;
47429;SDS011;33181;49.246;7.372;2023-05-02T15:05:38;3.60;;;2.80;;
47429;SDS011;33181;49.246;7.372;2023-05-02T15:08:04;3.60;;;2.77;;
47429;SDS011;33181;49.246;7.372;2023-05-02T15:10:30;4.23;;;3.33;;
47429;SDS011;33181;49.246;7.372;2023-05-02T15:13:00;4.40;;;3.87;;
47429;SDS011;33181;49.246;7.372;2023-05-02T15:15:27;5.00;;;4.30;;
47429;SDS011;33181;49.246;7.372;2023-05-02T15:17:53;5.87;;;3.60;;
47429;SDS011;33181;49.246;7.372;2023-05-02T15:20:20;5.40;;;3.67;;
47429;SDS011;33181;49.246;7.372;2023-05-02T15:22:48;4.03;;;3.40;;
47429;SDS011;33181;49.246;7.372;2023-05-02T15:25:20;6.27;;;4.17;;
47429;SDS011;33181;49.246;7.372;2023-05-02T15:27:55;5.13;;;3.80;;
47429;SDS011;33181;49.246;7.372;2023-05-02T15:30:21;4.37;;;3.87;;
47429;SDS011;33181;49.246;7.372;2023-05-02T15:32:46;6.10;;;4.40;;